UZB234 UZTT-OPIS
Flight info
| Callsign | UZB234 |
|---|---|
| Flight time | 1h 35m |
| Altitude | 39000 |
| Route | K0824F390 TISIB1B TISIB DCT ESIBO DCT KIBFU L139 POMIR G500 FIRUZ/N0443F390 P500 MOTMO/N0443F380 P500 GERRY/N0438F390 P500 ATROL/N0442F380 P500 PS/N0436F390 T400 NONIB J143 KALMI KALMI1A |
| Aircraft | A20N/M-SDE2E3FGHIRWXY/LB1 |
Departure
| Time | 2026-04-30 13:29 |
|---|---|
| Airport | Tashkent International Airport (UZTT) |
Arrival
| Time | 2026-04-30 15:04 |
|---|---|
| Airport | Islamabad International Airport (OPIS) |
| Time | Latitude | Longitude | Altitude | Speed | Heading |
|---|---|---|---|---|---|
| 2026-04-30 13:21 | 41.26012 | 69.26948 | 1410 ft | 0 kts | 333° |
| 2026-04-30 13:26 | 41.26024 | 69.26807 | 1404 ft | 11 kts | 250° |
| 2026-04-30 13:26 | 41.25952 | 69.26586 | 1408 ft | 15 kts | 245° |
| 2026-04-30 13:27 | 41.25802 | 69.26366 | 1406 ft | 13 kts | 215° |
| 2026-04-30 13:28 | 41.25669 | 69.26524 | 1404 ft | 1 kts | 80° |
| 2026-04-30 13:28 | 41.25716 | 69.26938 | 1408 ft | 76 kts | 83° |
| 2026-04-30 13:28 | 41.25820 | 69.27895 | 1406 ft | 130 kts | 81° |
| 2026-04-30 13:29 | 41.26133 | 69.30780 | 2061 ft | 153 kts | 84° |
| 2026-04-30 13:29 | 41.26359 | 69.33483 | 3081 ft | 156 kts | 83° |
| 2026-04-30 13:30 | 41.26872 | 69.38028 | 4615 ft | 169 kts | 78° |
| 2026-04-30 13:31 | 41.27306 | 69.41443 | 5486 ft | 206 kts | 81° |
| 2026-04-30 13:31 | 41.27978 | 69.47765 | 7274 ft | 254 kts | 81° |
| 2026-04-30 13:32 | 41.27808 | 69.52790 | 8182 ft | 301 kts | 115° |
| 2026-04-30 13:32 | 41.24605 | 69.56456 | 9684 ft | 318 kts | 165° |
| 2026-04-30 13:33 | 41.20319 | 69.55811 | 11409 ft | 322 kts | 211° |
| 2026-04-30 13:33 | 41.17658 | 69.51174 | 13102 ft | 327 kts | 257° |
| 2026-04-30 13:34 | 41.17442 | 69.48163 | 13936 ft | 330 kts | 268° |
| 2026-04-30 13:34 | 41.16533 | 69.38946 | 16199 ft | 344 kts | 247° |
| 2026-04-30 13:35 | 41.15219 | 69.36278 | 16923 ft | 350 kts | 226° |
| 2026-04-30 13:35 | 41.10842 | 69.33481 | 18305 ft | 362 kts | 185° |
| 2026-04-30 13:36 | 41.06017 | 69.35123 | 19640 ft | 367 kts | 145° |
| 2026-04-30 13:36 | 41.04165 | 69.37463 | 20275 ft | 371 kts | 126° |
| 2026-04-30 13:36 | 41.01948 | 69.43649 | 21526 ft | 379 kts | 111° |
| 2026-04-30 13:37 | 41.01003 | 69.46925 | 22140 ft | 383 kts | 112° |
| 2026-04-30 13:37 | 40.98946 | 69.53507 | 23369 ft | 390 kts | 114° |
| 2026-04-30 13:38 | 40.96723 | 69.60133 | 24401 ft | 397 kts | 115° |
| 2026-04-30 13:38 | 40.95582 | 69.63479 | 24889 ft | 401 kts | 115° |
| 2026-04-30 13:38 | 40.93281 | 69.70215 | 25807 ft | 410 kts | 116° |
| 2026-04-30 13:39 | 40.90854 | 69.77306 | 26077 ft | 435 kts | 116° |
| 2026-04-30 13:39 | 40.88288 | 69.84795 | 26328 ft | 459 kts | 116° |
| 2026-04-30 13:40 | 40.86955 | 69.88678 | 26445 ft | 469 kts | 116° |
| 2026-04-30 13:40 | 40.85593 | 69.92642 | 26554 ft | 479 kts | 116° |
| 2026-04-30 13:40 | 40.84208 | 69.96668 | 26834 ft | 483 kts | 116° |
| 2026-04-30 13:40 | 40.82811 | 70.00722 | 27216 ft | 486 kts | 116° |
| 2026-04-30 13:41 | 40.81404 | 70.04800 | 27529 ft | 489 kts | 116° |
| 2026-04-30 13:41 | 40.79988 | 70.08897 | 27874 ft | 491 kts | 116° |
| 2026-04-30 13:41 | 40.78565 | 70.13006 | 28162 ft | 493 kts | 116° |
| 2026-04-30 13:41 | 40.77153 | 70.17077 | 28424 ft | 495 kts | 116° |
| 2026-04-30 13:42 | 40.75717 | 70.21210 | 28639 ft | 496 kts | 116° |
| 2026-04-30 13:42 | 40.74275 | 70.25354 | 28832 ft | 498 kts | 116° |
| 2026-04-30 13:42 | 40.71382 | 70.33653 | 29263 ft | 498 kts | 116° |
| 2026-04-30 13:43 | 40.69935 | 70.37794 | 29503 ft | 497 kts | 116° |
| 2026-04-30 13:43 | 40.68486 | 70.41932 | 29758 ft | 497 kts | 116° |
| 2026-04-30 13:43 | 40.67040 | 70.46058 | 30013 ft | 496 kts | 116° |
| 2026-04-30 13:43 | 40.65593 | 70.50183 | 30245 ft | 495 kts | 116° |
| 2026-04-30 13:44 | 40.64146 | 70.54301 | 30489 ft | 495 kts | 116° |
| 2026-04-30 13:44 | 40.62702 | 70.58402 | 30726 ft | 494 kts | 116° |
| 2026-04-30 13:44 | 40.61256 | 70.62506 | 30972 ft | 494 kts | 116° |
| 2026-04-30 13:44 | 40.59812 | 70.66597 | 31230 ft | 493 kts | 116° |
| 2026-04-30 13:45 | 40.56920 | 70.74774 | 31728 ft | 492 kts | 117° |
| 2026-04-30 13:45 | 40.55475 | 70.78849 | 31973 ft | 491 kts | 117° |
| 2026-04-30 13:45 | 40.54048 | 70.82870 | 32210 ft | 491 kts | 117° |
| 2026-04-30 13:46 | 40.52603 | 70.86934 | 32445 ft | 491 kts | 117° |
| 2026-04-30 13:46 | 40.51156 | 70.90999 | 32677 ft | 490 kts | 117° |
| 2026-04-30 13:46 | 40.49707 | 70.95055 | 32909 ft | 490 kts | 118° |
| 2026-04-30 13:46 | 40.47951 | 70.98861 | 33113 ft | 486 kts | 129° |
| 2026-04-30 13:47 | 40.45674 | 71.02116 | 33298 ft | 483 kts | 141° |
| 2026-04-30 13:47 | 40.42967 | 71.04691 | 33498 ft | 478 kts | 153° |
| 2026-04-30 13:47 | 40.39953 | 71.06493 | 33694 ft | 474 kts | 164° |
| 2026-04-30 13:47 | 40.36765 | 71.07596 | 33895 ft | 473 kts | 168° |
| 2026-04-30 13:48 | 40.33560 | 71.08610 | 34061 ft | 473 kts | 168° |
| 2026-04-30 13:48 | 40.30353 | 71.09636 | 34203 ft | 474 kts | 168° |
| 2026-04-30 13:48 | 40.27150 | 71.10663 | 34346 ft | 475 kts | 168° |
| 2026-04-30 13:48 | 40.23971 | 71.11683 | 34457 ft | 476 kts | 168° |
| 2026-04-30 13:49 | 40.20753 | 71.12715 | 34580 ft | 478 kts | 169° |
| 2026-04-30 13:49 | 40.17519 | 71.13750 | 34704 ft | 479 kts | 169° |
| 2026-04-30 13:49 | 40.14278 | 71.14786 | 34830 ft | 480 kts | 169° |
| 2026-04-30 13:49 | 40.11027 | 71.15825 | 34960 ft | 481 kts | 169° |
| 2026-04-30 13:50 | 40.07763 | 71.16865 | 35078 ft | 482 kts | 169° |
| 2026-04-30 13:50 | 40.01234 | 71.18944 | 35353 ft | 484 kts | 169° |
| 2026-04-30 13:50 | 39.97958 | 71.19986 | 35494 ft | 485 kts | 169° |
| 2026-04-30 13:51 | 39.94674 | 71.21029 | 35628 ft | 485 kts | 169° |
| 2026-04-30 13:51 | 39.91389 | 71.22072 | 35762 ft | 486 kts | 169° |
| 2026-04-30 13:51 | 39.88096 | 71.23116 | 35898 ft | 487 kts | 169° |
| 2026-04-30 13:51 | 39.84805 | 71.24158 | 35979 ft | 488 kts | 170° |
| 2026-04-30 13:52 | 39.81544 | 71.25189 | 36107 ft | 488 kts | 170° |
| 2026-04-30 13:52 | 39.78243 | 71.26232 | 36228 ft | 489 kts | 170° |
| 2026-04-30 13:52 | 39.74937 | 71.27278 | 36347 ft | 489 kts | 170° |
| 2026-04-30 13:52 | 39.71625 | 71.28325 | 36458 ft | 490 kts | 170° |
| 2026-04-30 13:53 | 39.64998 | 71.30418 | 36629 ft | 491 kts | 170° |
| 2026-04-30 13:53 | 39.59461 | 71.32146 | 36810 ft | 493 kts | 170° |
| 2026-04-30 13:54 | 39.54992 | 71.33535 | 36985 ft | 493 kts | 171° |
| 2026-04-30 13:54 | 39.51663 | 71.34571 | 37031 ft | 493 kts | 170° |
| 2026-04-30 13:54 | 39.48318 | 71.35614 | 37139 ft | 494 kts | 170° |
| 2026-04-30 13:54 | 39.44972 | 71.36660 | 37231 ft | 495 kts | 170° |
| 2026-04-30 13:55 | 39.39400 | 71.38396 | 37343 ft | 495 kts | 171° |
| 2026-04-30 13:55 | 39.31595 | 71.40825 | 37563 ft | 497 kts | 171° |
| 2026-04-30 13:56 | 39.25961 | 71.42574 | 37699 ft | 497 kts | 171° |
| 2026-04-30 13:56 | 39.19249 | 71.44652 | 37838 ft | 499 kts | 171° |
| 2026-04-30 13:57 | 39.15872 | 71.45696 | 37946 ft | 499 kts | 171° |
| 2026-04-30 13:57 | 39.12487 | 71.46742 | 38030 ft | 500 kts | 171° |
| 2026-04-30 13:57 | 39.05705 | 71.48835 | 38172 ft | 502 kts | 171° |
| 2026-04-30 13:58 | 39.02307 | 71.49884 | 38316 ft | 501 kts | 171° |
| 2026-04-30 13:58 | 38.95511 | 71.51975 | 38528 ft | 503 kts | 171° |
| 2026-04-30 13:59 | 38.88687 | 71.54067 | 38620 ft | 504 kts | 172° |
| 2026-04-30 13:59 | 38.81900 | 71.56145 | 38746 ft | 504 kts | 172° |
| 2026-04-30 14:00 | 38.75070 | 71.58234 | 38844 ft | 504 kts | 172° |
| 2026-04-30 14:00 | 38.64801 | 71.61366 | 38911 ft | 506 kts | 172° |
| 2026-04-30 14:01 | 38.57954 | 71.63063 | 39048 ft | 500 kts | 179° |
| 2026-04-30 14:01 | 38.51058 | 71.63365 | 39131 ft | 494 kts | 186° |
| 2026-04-30 14:02 | 38.44169 | 71.63319 | 39126 ft | 495 kts | 186° |
| 2026-04-30 14:02 | 38.37258 | 71.63300 | 39124 ft | 496 kts | 186° |
| 2026-04-30 14:03 | 38.30364 | 71.63290 | 39112 ft | 495 kts | 186° |
| 2026-04-30 14:03 | 38.23468 | 71.63277 | 39104 ft | 494 kts | 186° |
| 2026-04-30 14:04 | 38.16617 | 71.63262 | 39100 ft | 496 kts | 186° |
| 2026-04-30 14:04 | 38.09692 | 71.63250 | 39097 ft | 498 kts | 186° |
| 2026-04-30 14:05 | 38.02737 | 71.63239 | 39101 ft | 500 kts | 186° |
| 2026-04-30 14:05 | 37.95808 | 71.63228 | 39101 ft | 499 kts | 186° |
| 2026-04-30 14:06 | 37.85388 | 71.63209 | 39096 ft | 500 kts | 187° |
| 2026-04-30 14:07 | 37.74921 | 71.63188 | 39100 ft | 502 kts | 187° |
| 2026-04-30 14:08 | 37.64422 | 71.63169 | 39108 ft | 503 kts | 187° |
| 2026-04-30 14:08 | 37.53957 | 71.63150 | 39113 ft | 504 kts | 187° |
| 2026-04-30 14:09 | 37.46932 | 71.63139 | 39120 ft | 505 kts | 187° |
| 2026-04-30 14:10 | 37.36397 | 71.63123 | 39116 ft | 504 kts | 187° |
| 2026-04-30 14:10 | 37.29391 | 71.63112 | 39121 ft | 503 kts | 187° |
| 2026-04-30 14:11 | 37.22436 | 71.63098 | 39136 ft | 503 kts | 187° |
| 2026-04-30 14:11 | 37.15398 | 71.63085 | 39128 ft | 506 kts | 187° |
| 2026-04-30 14:12 | 37.08397 | 71.63072 | 39133 ft | 505 kts | 187° |
| 2026-04-30 14:12 | 37.01352 | 71.63061 | 39129 ft | 505 kts | 187° |
| 2026-04-30 14:13 | 36.94412 | 71.63053 | 39205 ft | 498 kts | 187° |
| 2026-04-30 14:13 | 36.87482 | 71.63036 | 39124 ft | 493 kts | 188° |
| 2026-04-30 14:14 | 36.80631 | 71.63024 | 39127 ft | 494 kts | 188° |
| 2026-04-30 14:14 | 36.73744 | 71.63011 | 39139 ft | 501 kts | 188° |
| 2026-04-30 14:15 | 36.66733 | 71.63000 | 39125 ft | 505 kts | 188° |
| 2026-04-30 14:15 | 36.59699 | 71.63075 | 39141 ft | 506 kts | 187° |
| 2026-04-30 14:16 | 36.52629 | 71.63192 | 39126 ft | 510 kts | 187° |
| 2026-04-30 14:16 | 36.45564 | 71.63041 | 39120 ft | 500 kts | 194° |
| 2026-04-30 14:17 | 36.38844 | 71.61533 | 39054 ft | 488 kts | 205° |
| 2026-04-30 14:17 | 36.32595 | 71.58604 | 39010 ft | 473 kts | 215° |
| 2026-04-30 14:18 | 36.27071 | 71.54417 | 38966 ft | 460 kts | 225° |
| 2026-04-30 14:18 | 36.24275 | 71.52385 | 39072 ft | 473 kts | 213° |
| 2026-04-30 14:18 | 36.17706 | 71.50455 | 39060 ft | 504 kts | 189° |
| 2026-04-30 14:19 | 36.10631 | 71.51774 | 39045 ft | 529 kts | 166° |
| 2026-04-30 14:19 | 36.07244 | 71.53671 | 39037 ft | 540 kts | 155° |
| 2026-04-30 14:19 | 36.04125 | 71.56333 | 39003 ft | 550 kts | 143° |
| 2026-04-30 14:20 | 36.01391 | 71.59689 | 38998 ft | 556 kts | 131° |
| 2026-04-30 14:20 | 35.99193 | 71.63544 | 38988 ft | 557 kts | 120° |
| 2026-04-30 14:20 | 35.95584 | 71.71992 | 38968 ft | 555 kts | 126° |
| 2026-04-30 14:21 | 35.93134 | 71.75658 | 38964 ft | 552 kts | 138° |
| 2026-04-30 14:21 | 35.90254 | 71.78776 | 38954 ft | 547 kts | 146° |
| 2026-04-30 14:21 | 35.83948 | 71.83888 | 38949 ft | 537 kts | 162° |
| 2026-04-30 14:22 | 35.80456 | 71.85401 | 38943 ft | 527 kts | 174° |
| 2026-04-30 14:22 | 35.73361 | 71.85967 | 38950 ft | 500 kts | 197° |
| 2026-04-30 14:22 | 35.70003 | 71.85101 | 38944 ft | 487 kts | 204° |
| 2026-04-30 14:23 | 35.56724 | 71.81436 | 38948 ft | 492 kts | 198° |
| 2026-04-30 14:24 | 35.46530 | 71.79471 | 38937 ft | 498 kts | 198° |
| 2026-04-30 14:25 | 35.32862 | 71.76892 | 38924 ft | 488 kts | 199° |
| 2026-04-30 14:26 | 35.26111 | 71.75605 | 38813 ft | 494 kts | 198° |
| 2026-04-30 14:26 | 35.22708 | 71.74959 | 38732 ft | 495 kts | 198° |
| 2026-04-30 14:27 | 35.12493 | 71.73035 | 38751 ft | 499 kts | 198° |
| 2026-04-30 14:27 | 35.05639 | 71.71744 | 38816 ft | 498 kts | 198° |
| 2026-04-30 14:28 | 34.95368 | 71.69812 | 38852 ft | 498 kts | 198° |
| 2026-04-30 14:28 | 34.88514 | 71.68524 | 38847 ft | 498 kts | 198° |
| 2026-04-30 14:29 | 34.81712 | 71.67259 | 38821 ft | 483 kts | 198° |
| 2026-04-30 14:29 | 34.76307 | 71.66262 | 38779 ft | 466 kts | 199° |
| 2026-04-30 14:30 | 34.65580 | 71.64231 | 36501 ft | 472 kts | 199° |
| 2026-04-30 14:31 | 34.59060 | 71.63013 | 35139 ft | 472 kts | 198° |
| 2026-04-30 14:31 | 34.52557 | 71.61801 | 33916 ft | 476 kts | 198° |
| 2026-04-30 14:31 | 34.49269 | 71.61184 | 33171 ft | 478 kts | 198° |
| 2026-04-30 14:32 | 34.42716 | 71.59962 | 31824 ft | 473 kts | 195° |
| 2026-04-30 14:32 | 34.39508 | 71.59362 | 31139 ft | 471 kts | 194° |
| 2026-04-30 14:32 | 34.36274 | 71.58756 | 30464 ft | 469 kts | 193° |
| 2026-04-30 14:33 | 34.33061 | 71.58154 | 29890 ft | 465 kts | 192° |
| 2026-04-30 14:33 | 34.26735 | 71.56983 | 28589 ft | 455 kts | 192° |
| 2026-04-30 14:33 | 34.23623 | 71.56409 | 27943 ft | 450 kts | 192° |
| 2026-04-30 14:34 | 34.20531 | 71.55839 | 27311 ft | 446 kts | 192° |
| 2026-04-30 14:34 | 34.17488 | 71.55279 | 26895 ft | 438 kts | 192° |
| 2026-04-30 14:34 | 34.14479 | 71.54725 | 26779 ft | 440 kts | 192° |
| 2026-04-30 14:34 | 34.11435 | 71.54164 | 26747 ft | 443 kts | 192° |
| 2026-04-30 14:35 | 34.06362 | 71.53233 | 26723 ft | 442 kts | 192° |
| 2026-04-30 14:35 | 34.02352 | 71.52503 | 26269 ft | 439 kts | 190° |
| 2026-04-30 14:35 | 33.99293 | 71.52402 | 25721 ft | 440 kts | 177° |
| 2026-04-30 14:36 | 33.96293 | 71.53137 | 25161 ft | 440 kts | 163° |
| 2026-04-30 14:36 | 33.93518 | 71.54678 | 24590 ft | 439 kts | 150° |
| 2026-04-30 14:36 | 33.90964 | 71.56665 | 24055 ft | 436 kts | 147° |
| 2026-04-30 14:36 | 33.88470 | 71.58719 | 23542 ft | 432 kts | 147° |
| 2026-04-30 14:37 | 33.85998 | 71.60735 | 22976 ft | 427 kts | 147° |
| 2026-04-30 14:37 | 33.83572 | 71.62693 | 22349 ft | 424 kts | 145° |
| 2026-04-30 14:37 | 33.81417 | 71.65093 | 21725 ft | 422 kts | 133° |
| 2026-04-30 14:37 | 33.79525 | 71.67768 | 21118 ft | 419 kts | 130° |
| 2026-04-30 14:38 | 33.77692 | 71.70473 | 20532 ft | 415 kts | 130° |
| 2026-04-30 14:38 | 33.75859 | 71.73153 | 19962 ft | 412 kts | 130° |
| 2026-04-30 14:38 | 33.74026 | 71.75782 | 19405 ft | 409 kts | 130° |
| 2026-04-30 14:38 | 33.72273 | 71.78470 | 18775 ft | 408 kts | 121° |
| 2026-04-30 14:39 | 33.71127 | 71.81556 | 18281 ft | 402 kts | 108° |
| 2026-04-30 14:39 | 33.70290 | 71.84753 | 17623 ft | 401 kts | 105° |
| 2026-04-30 14:39 | 33.69521 | 71.87895 | 17142 ft | 395 kts | 105° |
| 2026-04-30 14:40 | 33.67914 | 71.94150 | 16010 ft | 388 kts | 107° |
| 2026-04-30 14:40 | 33.67082 | 71.97232 | 15458 ft | 385 kts | 107° |
| 2026-04-30 14:40 | 33.66249 | 72.00270 | 14939 ft | 382 kts | 107° |
| 2026-04-30 14:40 | 33.65417 | 72.03284 | 14447 ft | 378 kts | 107° |
| 2026-04-30 14:41 | 33.64601 | 72.06231 | 14282 ft | 365 kts | 107° |
| 2026-04-30 14:41 | 33.63817 | 72.09060 | 14156 ft | 351 kts | 107° |
| 2026-04-30 14:41 | 33.63312 | 72.10878 | 14078 ft | 342 kts | 107° |
| 2026-04-30 14:41 | 33.62333 | 72.14410 | 13936 ft | 325 kts | 107° |
| 2026-04-30 14:42 | 33.61635 | 72.16923 | 13791 ft | 309 kts | 107° |
| 2026-04-30 14:42 | 33.60975 | 72.19303 | 13655 ft | 291 kts | 107° |
| 2026-04-30 14:42 | 33.60352 | 72.21543 | 13505 ft | 275 kts | 107° |
| 2026-04-30 14:42 | 33.59755 | 72.23689 | 13137 ft | 269 kts | 107° |
| 2026-04-30 14:43 | 33.59166 | 72.25810 | 12626 ft | 267 kts | 107° |
| 2026-04-30 14:43 | 33.58778 | 72.27206 | 12329 ft | 266 kts | 107° |
| 2026-04-30 14:43 | 33.58196 | 72.29299 | 11879 ft | 264 kts | 107° |
| 2026-04-30 14:43 | 33.57429 | 72.32052 | 11285 ft | 261 kts | 107° |
| 2026-04-30 14:44 | 33.57041 | 72.33445 | 10983 ft | 260 kts | 107° |
| 2026-04-30 14:44 | 33.56285 | 72.36152 | 10426 ft | 257 kts | 107° |
| 2026-04-30 14:44 | 33.55720 | 72.38175 | 10010 ft | 255 kts | 107° |
| 2026-04-30 14:44 | 33.55339 | 72.39536 | 9745 ft | 254 kts | 107° |
| 2026-04-30 14:45 | 33.54792 | 72.41491 | 9320 ft | 251 kts | 107° |
| 2026-04-30 14:45 | 33.54132 | 72.43421 | 8894 ft | 249 kts | 112° |
| 2026-04-30 14:45 | 33.53450 | 72.45317 | 8500 ft | 245 kts | 112° |
| 2026-04-30 14:45 | 33.52784 | 72.47178 | 8099 ft | 242 kts | 112° |
| 2026-04-30 14:46 | 33.52123 | 72.49033 | 7677 ft | 241 kts | 112° |
| 2026-04-30 14:46 | 33.51467 | 72.50871 | 7282 ft | 239 kts | 112° |
| 2026-04-30 14:46 | 33.50817 | 72.52691 | 6903 ft | 236 kts | 112° |
| 2026-04-30 14:46 | 33.50174 | 72.54490 | 6530 ft | 234 kts | 112° |
| 2026-04-30 14:47 | 33.49535 | 72.56272 | 6151 ft | 232 kts | 113° |
| 2026-04-30 14:47 | 33.48805 | 72.57976 | 5756 ft | 229 kts | 128° |
| 2026-04-30 14:47 | 33.47785 | 72.59433 | 5367 ft | 227 kts | 125° |
| 2026-04-30 14:47 | 33.47128 | 72.61103 | 4965 ft | 224 kts | 108° |
| 2026-04-30 14:48 | 33.46637 | 72.62865 | 4597 ft | 222 kts | 108° |
| 2026-04-30 14:48 | 33.46167 | 72.64580 | 4418 ft | 209 kts | 108° |
| 2026-04-30 14:48 | 33.45727 | 72.66186 | 4224 ft | 198 kts | 108° |
| 2026-04-30 14:48 | 33.45302 | 72.67745 | 3886 ft | 196 kts | 106° |
| 2026-04-30 14:49 | 33.45033 | 72.69345 | 3519 ft | 196 kts | 96° |
| 2026-04-30 14:49 | 33.44906 | 72.70968 | 3180 ft | 195 kts | 95° |
| 2026-04-30 14:49 | 33.44795 | 72.72570 | 3047 ft | 197 kts | 95° |
| 2026-04-30 14:49 | 33.44684 | 72.74196 | 3014 ft | 195 kts | 95° |
| 2026-04-30 14:50 | 33.44576 | 72.77411 | 3005 ft | 193 kts | 73° |
| 2026-04-30 14:50 | 33.45301 | 72.78737 | 3014 ft | 197 kts | 38° |
| 2026-04-30 14:51 | 33.47638 | 72.80466 | 3014 ft | 197 kts | 31° |
| 2026-04-30 14:51 | 33.48827 | 72.81298 | 3008 ft | 198 kts | 32° |
| 2026-04-30 14:51 | 33.51178 | 72.82974 | 3006 ft | 198 kts | 18° |
| 2026-04-30 14:52 | 33.52546 | 72.82992 | 3019 ft | 202 kts | 340° |
| 2026-04-30 14:52 | 33.54088 | 72.80403 | 3020 ft | 205 kts | 266° |
| 2026-04-30 14:52 | 33.53626 | 72.78822 | 3017 ft | 203 kts | 228° |
| 2026-04-30 14:53 | 33.52098 | 72.76115 | 3016 ft | 203 kts | 268° |
| 2026-04-30 14:53 | 33.52415 | 72.74507 | 3019 ft | 203 kts | 300° |
| 2026-04-30 14:54 | 33.54089 | 72.71777 | 3010 ft | 203 kts | 307° |
| 2026-04-30 14:54 | 33.55688 | 72.68979 | 3014 ft | 206 kts | 302° |
| 2026-04-30 14:55 | 33.57141 | 72.66033 | 3014 ft | 205 kts | 300° |
| 2026-04-30 14:55 | 33.57864 | 72.64559 | 3008 ft | 205 kts | 307° |
| 2026-04-30 14:55 | 33.60378 | 72.63520 | 3012 ft | 201 kts | 21° |
| 2026-04-30 14:56 | 33.61875 | 72.66040 | 3014 ft | 197 kts | 94° |
| 2026-04-30 14:56 | 33.61115 | 72.69184 | 3018 ft | 197 kts | 113° |
| 2026-04-30 14:57 | 33.60587 | 72.70697 | 3018 ft | 196 kts | 112° |
| 2026-04-30 14:57 | 33.59585 | 72.73719 | 3015 ft | 197 kts | 120° |
| 2026-04-30 14:58 | 33.57257 | 72.75055 | 3020 ft | 201 kts | 192° |
| 2026-04-30 14:58 | 33.56058 | 72.74231 | 3024 ft | 205 kts | 230° |
| 2026-04-30 14:58 | 33.55774 | 72.71012 | 3023 ft | 207 kts | 290° |
| 2026-04-30 14:59 | 33.56769 | 72.67815 | 3040 ft | 196 kts | 291° |
| 2026-04-30 15:00 | 33.58427 | 72.64178 | 3013 ft | 158 kts | 344° |
| 2026-04-30 15:00 | 33.60120 | 72.65235 | 3274 ft | 153 kts | 77° |
| 2026-04-30 15:01 | 33.59247 | 72.67269 | 3416 ft | 151 kts | 148° |
| 2026-04-30 15:01 | 33.58366 | 72.67942 | 3415 ft | 149 kts | 147° |
| 2026-04-30 15:01 | 33.56844 | 72.69489 | 3099 ft | 138 kts | 112° |
| 2026-04-30 15:02 | 33.56661 | 72.70593 | 3046 ft | 136 kts | 99° |
| 2026-04-30 15:02 | 33.56502 | 72.71708 | 3017 ft | 135 kts | 101° |
| 2026-04-30 15:03 | 33.55986 | 72.75050 | 2667 ft | 135 kts | 101° |
| 2026-04-30 15:03 | 33.55642 | 72.77253 | 2328 ft | 133 kts | 101° |
| 2026-04-30 15:04 | 33.55305 | 72.79405 | 1986 ft | 130 kts | 100° |
| 2026-04-30 15:04 | 33.54954 | 72.81650 | 1745 ft | 0 kts | 100° |
| 2026-04-30 15:05 | 33.54936 | 72.81773 | 1739 ft | 12 kts | 100° |
| 2026-04-30 15:06 | 33.54885 | 72.82104 | 1746 ft | 43 kts | 99° |
| 2026-04-30 15:06 | 33.54778 | 72.82866 | 1751 ft | 23 kts | 89° |
| 2026-04-30 15:07 | 33.54904 | 72.83193 | 1749 ft | 18 kts | 313° |
| 2026-04-30 15:07 | 33.55007 | 72.82557 | 1751 ft | 39 kts | 283° |
| 2026-04-30 15:08 | 33.55180 | 72.82465 | 1746 ft | 16 kts | 8° |
| 2026-04-30 15:08 | 33.55474 | 72.82626 | 1751 ft | 7 kts | 99° |
| 2026-04-30 15:09 | 33.55465 | 72.82670 | 1748 ft | 6 kts | 104° |
| 2026-04-30 15:09 | 33.55497 | 72.82791 | 1747 ft | 11 kts | 56° |
| 2026-04-30 15:10 | 33.55541 | 72.82912 | 1745 ft | 0 kts | 148° |
| 2026-04-30 15:11 | 33.55478 | 72.82962 | 1752 ft | 0 kts | 146° |
| 2026-04-30 15:11 | 33.55476 | 72.82963 | 1752 ft | 0 kts | 146° |